Data for 04/21/2010

Time Sea-Level Adjusted Pressure Absolute Pressure Temperature Relative Humidity Dew Point   
(mb) (inHg) (mb) (inHg) (C) (F) (%) (C) (F)
00:05 1009 29.8 838 24.75 12 53.6 48 1.3 34.4
00:10 1009 29.8 838 24.75 12 53.5 48 1.3 34.4
00:15 1009 29.8 838 24.75 11.8 53.3 48 1.4 34.5
00:20 1009 29.8 838 24.75 11.8 53.3 49 1.4 34.5
00:25 1009 29.8 838 24.75 11.7 53.1 49 1.4 34.6
00:30 1009 29.8 838 24.75 11.6 52.8 49 1.4 34.5
00:35 1009 29.8 838 24.75 11.4 52.5 50 1.4 34.5
00:40 1009 29.8 838 24.75 11.3 52.3 50 1.4 34.6
00:45 1009 29.8 838 24.75 11.2 52.2 51 1.6 34.8
00:50 1009 29.8 838 24.75 11.1 51.9 52 1.6 34.9
00:55 1009 29.8 838 24.75 11 51.7 52 1.6 35
01:00 1009 29.8 838 24.75 10.8 51.5 53 1.7 35.1
01:05 1009 29.8 838 24.75 10.8 51.4 54 1.8 35.2
01:10 1009 29.8 838 24.75 10.7 51.3 54 1.9 35.4
01:15 1009 29.8 838 24.75 10.6 51.1 55 2 35.6
01:20 1009 29.8 838 24.75 10.6 51.1 55 2 35.6
01:25 1009 29.8 838 24.75 10.6 51.1 56 2.1 35.9
01:30 1009 29.8 838 24.75 10.5 51 56 2.1 35.8
01:35 1009 29.8 838 24.75 10.5 50.8 57 2.3 36.1
01:40 1009 29.8 838 24.75 10.3 50.6 57 2.3 36.1
01:45 1009 29.8 838 24.75 10.2 50.4 58 2.3 36.2
01:50 1009 29.8 838 24.75 10.1 50.2 58 2.4 36.3
01:55 1009 29.8 838 24.75 10 50.1 59 2.4 36.3
02:00 1009 29.8 838 24.75 9.9 49.9 59 2.4 36.3
02:05 1009 29.8 838 24.75 10 49.9 59 2.5 36.4
02:10 1009 29.8 838 24.75 9.9 49.8 60 2.5 36.5
02:15 1009 29.8 838 24.75 9.8 49.7 60 2.5 36.5
02:20 1009 29.8 838 24.75 9.8 49.6 61 2.6 36.7
02:25 1008 29.77 838 24.75 9.7 49.4 62 2.7 36.8
02:30 1009 29.8 838 24.75 9.6 49.3 62 2.6 36.7
02:35 1008 29.77 838 24.75 9.5 49.2 62 2.7 36.8
02:40 1008 29.77 838 24.75 9.5 49 62 2.6 36.7
02:45 1008 29.77 838 24.75 9.4 48.9 63 2.6 36.8
02:50 1008 29.77 838 24.75 9.3 48.7 63 2.7 36.8
02:55 1008 29.77 838 24.75 9.2 48.6 63 2.6 36.8
03:00 1008 29.77 838 24.75 9.1 48.4 64 2.7 36.8
03:05 1008 29.77 838 24.75 9 48.2 64 2.6 36.7
03:10 1008 29.77 838 24.75 8.9 48.1 64 2.6 36.7
03:15 1009 29.8 838 24.75 8.9 48 65 2.6 36.7
03:20 1008 29.77 838 24.75 8.8 47.9 65 2.6 36.7
03:25 1008 29.77 838 24.75 8.7 47.7 65 2.6 36.7
03:30 1008 29.77 838 24.75 8.7 47.6 66 2.6 36.7
03:35 1008 29.77 837 24.72 8.6 47.5 66 2.6 36.6
03:40 1008 29.77 837 24.72 8.6 47.5 66 2.6 36.6
03:45 1008 29.77 837 24.72 8.6 47.5 66 2.5 36.6
03:50 1008 29.77 837 24.72 8.6 47.4 66 2.6 36.7
03:55 1008 29.77 837 24.72 8.6 47.4 66 2.6 36.7
04:00 1008 29.77 837 24.72 8.5 47.2 67 2.6 36.7
04:05 1008 29.77 837 24.72 8.4 47 67 2.6 36.7
04:10 1008 29.77 837 24.72 8.3 46.9 67 2.6 36.6
04:15 1008 29.77 837 24.72 8.2 46.8 68 2.6 36.7
04:20 1008 29.77 837 24.72 8.2 46.7 68 2.6 36.7
04:25 1008 29.77 837 24.72 8.1 46.7 68 2.6 36.8
04:30 1008 29.77 837 24.72 8.2 46.7 68 2.7 36.8
04:35 1008 29.77 837 24.72 8.1 46.5 69 2.7 36.8
04:40 1008 29.77 837 24.72 8.1 46.5 69 2.7 36.8
04:45 1008 29.77 837 24.72 8 46.3 69 2.7 36.8
04:50 1008 29.77 837 24.72 7.9 46.3 69 2.7 36.8
04:55 1008 29.77 837 24.72 7.9 46.2 69 2.7 36.8
05:00 1008 29.77 837 24.72 7.9 46.2 70 2.7 36.9
05:05 1008 29.77 837 24.72 7.9 46.2 70 2.7 36.9
05:10 1008 29.77 837 24.72 7.8 46.1 70 2.8 37
05:15 1008 29.77 837 24.72 7.9 46.2 70 2.8 37
05:20 1008 29.77 837 24.72 7.8 46 70 2.7 36.9
05:25 1008 29.77 837 24.72 7.7 45.9 71 2.8 37
05:30 1008 29.77 837 24.72 7.6 45.8 71 2.7 36.9
05:35 1008 29.77 837 24.72 7.6 45.6 71 2.8 37
05:40 1008 29.77 837 24.72 7.5 45.5 72 2.8 37.1
05:45 1008 29.77 837 24.72 7.4 45.4 72 2.8 37
05:50 1008 29.77 837 24.72 7.4 45.3 72 2.8 37
05:55 1008 29.77 837 24.72 7.4 45.4 73 2.8 37.1
06:00 1008 29.77 837 24.72 7.4 45.3 73 2.9 37.2
06:05 1008 29.77 837 24.72 7.3 45.1 73 2.9 37.2
06:10 1008 29.77 837 24.72 7.3 45.1 73 2.8 37.1
06:15 1008 29.77 837 24.72 7.4 45.2 73 2.9 37.2
06:20 1008 29.77 837 24.72 7.4 45.3 73 2.9 37.2
06:25 1008 29.77 838 24.75 7.3 45.2 74 2.9 37.3
06:30 1008 29.77 838 24.75 7.3 45.1 74 2.9 37.2
06:35 1009 29.8 838 24.75 7.3 45.1 73 2.8 37.1
06:40 1009 29.8 838 24.75 7.4 45.2 74 2.9 37.3
06:45 1009 29.8 838 24.75 7.3 45.2 74 2.9 37.3
06:50 1009 29.8 838 24.75 7.3 45.1 74 3 37.3
06:55 1009 29.8 838 24.75 7.3 45.1 74 3 37.4
07:00 1009 29.8 838 24.75 7.2 44.9 75 3 37.4
07:05 1009 29.8 838 24.75 7.2 44.9 75 3 37.5
07:10 1009 29.8 838 24.75 7.1 44.9 75 3.1 37.5
07:15 1009 29.8 838 24.75 7.2 44.9 75 3.1 37.6
07:20 1009 29.8 838 24.75 7.2 45 75 3.2 37.7
07:25 1009 29.8 838 24.75 7.2 45 76 3.2 37.8
07:30 1009 29.8 838 24.75 7.3 45.2 75 3.2 37.8
07:35 1009 29.8 838 24.75 7.4 45.3 75 3.3 37.9
07:40 1009 29.8 838 24.75 7.5 45.6 74 3.2 37.8
07:45 1009 29.8 838 24.75 7.6 45.7 74 3.3 37.9
07:50 1009 29.8 838 24.75 7.7 45.9 74 3.3 38
07:55 1009 29.8 838 24.75 7.7 45.9 74 3.4 38.1
08:00 1009 29.8 838 24.75 7.8 46 73 3.3 38
08:05 1009 29.8 838 24.75 7.8 46.1 73 3.4 38.1
08:10 1009 29.8 838 24.75 7.9 46.2 73 3.4 38.1
08:15 1009 29.8 838 24.75 7.9 46.2 73 3.4 38.2
08:20 1009 29.8 838 24.75 8.1 46.5 73 3.5 38.3
08:25 1009 29.8 838 24.75 8.3 46.9 72 3.5 38.3
08:30 1009 29.8 838 24.75 8.3 47 72 3.5 38.4
08:35 1009 29.8 838 24.75 8.4 47.1 71 3.5 38.3
08:40 1009 29.8 838 24.75 8.3 47 72 3.6 38.5
08:45 1009 29.8 838 24.75 8.3 47 72 3.6 38.4
08:50 1009 29.8 838 24.75 8.6 47.4 70 3.5 38.3
08:55 1009 29.8 838 24.75 9 48.1 68 3.5 38.2
09:00 1009 29.8 838 24.75 9.4 48.9 66 3.4 38.1
09:05 1009 29.8 838 24.75 9.3 48.8 66 3.4 38
09:10 1009 29.8 838 24.75 9.4 48.9 66 3.3 38
09:15 1009 29.8 838 24.75 9.6 49.3 64 3.1 37.7
09:20 1009 29.8 838 24.75 9.8 49.6 64 3.4 38.2
09:25 1009 29.8 838 24.75 9.9 49.8 64 3.4 38.2
09:30 1009 29.8 838 24.75 9.7 49.5 65 3.6 38.4
09:35 1009 29.8 838 24.75 9.6 49.2 65 3.4 38.1
09:40 1009 29.8 838 24.75 9.7 49.4 65 3.5 38.3
09:45 1009 29.8 838 24.75 10 50 64 3.6 38.4
09:50 1009 29.8 838 24.75 10.3 50.5 63 3.6 38.5
09:55 1009 29.8 838 24.75 10.5 50.9 62 3.6 38.4
10:00 1009 29.8 838 24.75 10.6 51.1 62 3.6 38.5
10:05 1009 29.8 838 24.75 10.8 51.4 61 3.5 38.3
10:10 1009 29.8 838 24.75 11.2 52.2 59 3.7 38.6
10:15 1008 29.77 838 24.75 11.5 52.7 58 3.7 38.6
10:20 1008 29.77 838 24.75 11.7 53.1 57 3.5 38.3
10:25 1008 29.77 838 24.75 12.2 54 55 3.6 38.5
10:30 1008 29.77 838 24.75 12.4 54.3 55 3.6 38.5
10:35 1008 29.77 838 24.75 12.3 54.1 56 3.8 38.8
10:40 1008 29.77 837 24.72 12.6 54.7 55 3.8 38.9
10:45 1008 29.77 837 24.72 12.9 55.2 55 4 39.2
10:50 1008 29.77 837 24.72 12.7 54.8 56 4.1 39.4
10:55 1008 29.77 837 24.72 12.4 54.4 56 4 39.2
11:00 1008 29.77 837 24.72 12.5 54.4 55 3.7 38.7
11:05 1008 29.77 837 24.72 12.9 55.2 53 3.6 38.4
11:10 1008 29.77 837 24.72 13.4 56 51 3.4 38
11:15 1008 29.77 837 24.72 13.9 56.9 50 3.7 38.6
11:20 1008 29.77 837 24.72 13.6 56.4 50 3.5 38.3
11:25 1008 29.77 837 24.72 13.7 56.7 50 3.7 38.6
11:30 1008 29.77 837 24.72 13.7 56.7 49 3.4 38.1
11:35 1008 29.77 837 24.72 14.1 57.4 49 3.5 38.3
11:40 1008 29.77 837 24.72 14.5 58.1 47 3.5 38.3
11:45 1008 29.77 837 24.72 14.7 58.4 46 3.2 37.7
11:50 1008 29.77 837 24.72 14.8 58.6 46 3.2 37.8
11:55 1008 29.77 837 24.72 14.8 58.6 46 3.4 38.1
12:00 1008 29.77 837 24.72 14.7 58.5 46 3.4 38.1
12:05 1007 29.74 837 24.72 15 59 45 3.2 37.8
12:10 1007 29.74 837 24.72 15.4 59.7 46 3.9 39
12:15 1007 29.74 836 24.69 15.3 59.5 44 3.2 37.7
12:20 1007 29.74 836 24.69 15.9 60.7 42 3.2 37.8
12:25 1007 29.74 836 24.69 16.3 61.3 41 3.1 37.6
12:30 1007 29.74 836 24.69 16.4 61.5 44 4.1 39.3
12:35 1007 29.74 836 24.69 16 60.8 42 3.3 37.9
12:40 1007 29.74 836 24.69 16.2 61.2 42 3.3 37.9
12:45 1007 29.74 836 24.69 16.4 61.4 42 3.6 38.4
12:50 1007 29.74 836 24.69 16.6 61.8 41 3.3 38
12:55 1007 29.74 836 24.69 16.6 61.8 41 3.4 38.2
13:00 1007 29.74 836 24.69 16 60.9 42 3.3 37.9
13:05 1007 29.74 836 24.69 15.9 60.7 42 3 37.4
13:10 1007 29.74 836 24.69 16 60.9 42 3.3 37.9
13:15 1007 29.74 836 24.69 16.2 61.2 41 3.2 37.7
13:20 1007 29.74 836 24.69 16.5 61.7 42 3.5 38.3
13:25 1007 29.74 836 24.69 16 60.8 44 3.8 38.8
13:30 1007 29.74 836 24.69 15.9 60.5 44 3.7 38.6
13:35 1006 29.71 836 24.69 15.9 60.6 43 3.6 38.4
13:40 1006 29.71 836 24.69 16.1 60.9 45 4.1 39.4
13:45 1006 29.71 836 24.69 15.9 60.7 44 3.9 39
13:50 1006 29.71 835 24.66 16.3 61.3 44 4 39.1
13:55 1006 29.71 835 24.66 16.4 61.4 45 4.6 40.2
14:00 1006 29.71 835 24.66 16.1 61 45 4.2 39.6
14:05 1006 29.71 835 24.66 16.8 62.2 42 4 39.2
14:10 1006 29.71 835 24.66 16.8 62.3 44 4.6 40.3
14:15 1006 29.71 835 24.66 16.5 61.8 44 4.4 39.9
14:20 1006 29.71 835 24.66 16.8 62.2 42 4 39.2
14:25 1006 29.71 835 24.66 16.7 62 44 4.4 39.9
14:30 1006 29.71 835 24.66 16.5 61.7 42 3.7 38.6
14:35 1006 29.71 835 24.66 16.8 62.2 43 4.3 39.7
14:40 1006 29.71 835 24.66 16.8 62.2 42 4.1 39.3
14:45 1006 29.71 835 24.66 16.6 62 43 4.3 39.7
14:50 1006 29.71 835 24.66 16.4 61.5 44 4.3 39.8
14:55 1006 29.71 835 24.66 16.5 61.6 44 4.2 39.5
15:00 1005 29.68 835 24.66 16.9 62.5 42 4 39.3
15:05 1005 29.68 835 24.66 17.1 62.8 41 3.8 38.9
15:10 1005 29.68 835 24.66 17 62.7 44 4.9 40.7
15:15 1005 29.68 834 24.63 16.7 62.1 43 4.3 39.7
15:20 1005 29.68 834 24.63 16.8 62.3 43 4.3 39.7
15:25 1005 29.68 834 24.63 17.1 62.7 42 4.3 39.7
15:30 1005 29.68 834 24.63 17.2 62.9 42 4.2 39.6
15:35 1005 29.68 834 24.63 17.3 63.1 42 4.3 39.8
15:40 1005 29.68 834 24.63 17.5 63.4 41 4.3 39.8
15:45 1005 29.68 834 24.63 17.2 63 41 3.9 39
15:50 1005 29.68 834 24.63 17.5 63.4 40 3.8 38.9
15:55 1005 29.68 834 24.63 17.4 63.3 41 4.2 39.6
16:00 1005 29.68 834 24.63 17.6 63.6 40 3.9 39.1
16:05 1005 29.68 834 24.63 17.6 63.7 42 4.5 40.2
16:10 1005 29.68 834 24.63 17.7 63.8 41 4.2 39.6
16:15 1005 29.68 834 24.63 17.6 63.7 40 4 39.1
16:20 1005 29.68 834 24.63 17.6 63.6 39 3.7 38.6
16:25 1004 29.65 834 24.63 17.8 64 38 3.5 38.3
16:30 1004 29.65 834 24.63 17.7 63.8 40 4 39.2
16:35 1004 29.65 834 24.63 17.8 64 38 3.2 37.8
16:40 1004 29.65 834 24.63 17.6 63.8 40 3.9 39.1
16:45 1004 29.65 834 24.63 17.9 64.2 39 3.9 39.1
16:50 1004 29.65 834 24.63 17.6 63.6 40 4 39.2
16:55 1004 29.65 833 24.6 17.9 64.3 39 3.8 38.9
17:00 1004 29.65 833 24.6 17.9 64.2 40 4.2 39.5
17:05 1004 29.65 833 24.6 17.8 64.1 40 4.1 39.4
17:10 1004 29.65 833 24.6 17.4 63.3 41 4.1 39.4
17:15 1004 29.65 833 24.6 17.5 63.4 40 3.9 39.1
17:20 1004 29.65 833 24.6 17.3 63.2 40 3.8 38.9
17:25 1004 29.65 833 24.6 17.3 63.1 41 4.1 39.5
17:30 1004 29.65 833 24.6 17.3 63.1 41 3.9 39.1
17:35 1004 29.65 833 24.6 17.6 63.7 40 3.9 39
17:40 1004 29.65 833 24.6 17.5 63.6 40 3.9 39
17:45 1004 29.65 833 24.6 17.7 63.9 40 4.1 39.4
17:50 1004 29.65 833 24.6 17.5 63.4 40 4 39.2
17:55 1004 29.65 833 24.6 17.5 63.4 40 3.8 38.8
18:00 1004 29.65 833 24.6 17.5 63.5 40 3.9 38.9
18:05 1004 29.65 833 24.6 17.5 63.5 39 3.7 38.6
18:10 1004 29.65 833 24.6 17.2 63 40 3.8 38.8
18:15 1004 29.65 833 24.6 16.9 62.3 41 3.7 38.6
18:20 1004 29.65 833 24.6 16.7 62 42 3.8 38.8
18:25 1004 29.65 833 24.6 16.5 61.8 43 4 39.3
18:30 1004 29.65 833 24.6 16.6 61.8 42 3.7 38.6
18:35 1004 29.65 833 24.6 16.7 62.1 41 3.6 38.4
18:40 1004 29.65 833 24.6 16.7 62.1 42 3.9 39
18:45 1004 29.65 833 24.6 16.7 62 43 4.1 39.4
18:50 1004 29.65 833 24.6 16.5 61.8 43 4 39.1
18:55 1004 29.65 833 24.6 16.5 61.6 43 3.9 38.9
19:00 1004 29.65 833 24.6 16.4 61.6 42 3.7 38.6
19:05 1004 29.65 833 24.6 16.4 61.5 43 3.8 38.8
19:10 1004 29.65 833 24.6 16.3 61.4 43 3.7 38.7
19:15 1004 29.65 833 24.6 16.3 61.3 43 3.7 38.7
19:20 1004 29.65 833 24.6 16.2 61.2 43 3.6 38.5
19:25 1004 29.65 833 24.6 16.2 61.2 43 3.6 38.5
19:30 1004 29.65 833 24.6 16.2 61.2 43 3.7 38.6
19:35 1004 29.65 833 24.6 16.2 61.1 42 3.4 38.2
19:40 1004 29.65 833 24.6 16.2 61.2 42 3.5 38.3
19:45 1004 29.65 833 24.6 16.2 61.1 42 3.5 38.3
19:50 1004 29.65 833 24.6 16.1 61 43 3.6 38.5
19:55 1004 29.65 833 24.6 16.1 60.9 44 3.8 38.8
20:00 1004 29.65 833 24.6 16 60.8 44 3.7 38.7
20:05 1004 29.65 833 24.6 16 60.7 44 3.7 38.7
20:10 1004 29.65 833 24.6 15.9 60.7 44 4 39.1
20:15 1004 29.65 833 24.6 15.9 60.6 45 4 39.2
20:20 1004 29.65 833 24.6 15.8 60.4 45 4 39.1
20:25 1004 29.65 833 24.6 15.8 60.4 45 4.1 39.3
20:30 1004 29.65 833 24.6 15.6 60.2 46 4 39.2
20:35 1004 29.65 833 24.6 15.6 60.1 46 4.1 39.3
20:40 1004 29.65 833 24.6 15.5 60 46 4.1 39.3
20:45 1004 29.65 833 24.6 15.5 59.8 46 4 39.2
20:50 1004 29.65 833 24.6 15.4 59.7 46 3.9 39.1
20:55 1004 29.65 833 24.6 15.3 59.6 46 3.9 39.1
21:00 1004 29.65 833 24.6 15.3 59.5 46 3.8 38.9
21:05 1004 29.65 833 24.6 15.3 59.5 46 3.8 38.8
21:10 1004 29.65 833 24.6 15.2 59.3 46 3.8 38.9
21:15 1004 29.65 833 24.6 15.1 59.1 47 3.8 38.9
21:20 1004 29.65 834 24.63 15 58.9 47 4 39.1
21:25 1004 29.65 834 24.63 14.9 58.8 47 3.9 39
21:30 1004 29.65 834 24.63 14.9 58.8 48 4.1 39.4
21:35 1005 29.68 834 24.63 14.7 58.5 49 4.2 39.6
21:40 1005 29.68 834 24.63 14.6 58.3 50 4.4 39.9
21:45 1005 29.68 834 24.63 14.4 57.9 51 4.4 40
21:50 1005 29.68 834 24.63 14.4 57.8 51 4.5 40.1
21:55 1005 29.68 834 24.63 14.4 57.8 51 4.6 40.2
22:00 1005 29.68 834 24.63 14.2 57.6 52 4.6 40.3
22:05 1005 29.68 834 24.63 14.2 57.5 52 4.4 40
22:10 1005 29.68 834 24.63 14.1 57.5 51 4.3 39.8
22:15 1005 29.68 834 24.63 14.1 57.4 51 4.3 39.8
22:20 1005 29.68 834 24.63 14 57.3 52 4.3 39.7
22:25 1005 29.68 834 24.63 14 57.1 53 4.5 40.1
22:30 1005 29.68 834 24.63 13.8 56.9 53 4.4 40
22:35 1005 29.68 834 24.63 13.7 56.7 53 4.3 39.8
22:40 1005 29.68 834 24.63 13.6 56.5 52 4 39.2
22:45 1005 29.68 834 24.63 13.4 56.2 52 3.7 38.7
22:50 1005 29.68 834 24.63 13.4 56 52 3.8 38.8
22:55 1005 29.68 834 24.63 13.2 55.8 52 3.7 38.7
23:00 1005 29.68 834 24.63 13.1 55.6 51 3.4 38.1
23:05 1005 29.68 834 24.63 13.1 55.5 52 3.6 38.5
23:10 1005 29.68 834 24.63 12.9 55.2 53 3.6 38.5
23:15 1005 29.68 835 24.66 12.8 55 53 3.6 38.5
23:20 1005 29.68 835 24.66 12.7 54.8 54 3.7 38.6
23:25 1005 29.68 835 24.66 12.7 54.9 55 3.9 39
23:30 1005 29.68 835 24.66 12.6 54.8 56 4 39.3
23:35 1006 29.71 835 24.66 12.6 54.6 56 4 39.3
23:40 1006 29.71 835 24.66 12.5 54.6 57 4.3 39.7
23:45 1006 29.71 835 24.66 12.4 54.4 58 4.4 39.9
23:50 1006 29.71 835 24.66 12.4 54.3 58 4.5 40.1
23:55 1006 29.71 835 24.66 12.2 54 59 4.6 40.2
24:00 1006 29.71 835 24.66 12 53.7 60 4.6 40.3